Terminal Aerodrome Forecast
Issued by NWS Green Bay, WI

Home | Current Version | Previous Version | Graphics & Text | Print | Product List | Glossary On
Versions: 1 2 3 4 5 6 7 8 9 10 11 12 13 14 15 16 17 18 19 20 21 22 23 24 25 26 27 28 29 30 31 32
915
FTUS43 KGRB 241720
TAFGRB
TAF
KGRB 241720Z 2418/2518 16009KT P6SM BKN150
      TEMPO 2420/2424 16012G20KT
     FM250200 14007KT P6SM BKN200 WS020/17040KT
     FM250900 16010KT P6SM BKN130=

USA.gov is the U.S. government's official web portal to all federal, state and local government web resources and services.